createdAt,value
2019-04-07T00:00:32.718Z,0.00
2019-04-07T00:01:32.727Z,0.00
2019-04-07T00:02:33.070Z,0.00
2019-04-07T00:03:33.290Z,0.00
2019-04-07T00:04:33.025Z,0.00
2019-04-07T00:05:32.659Z,0.00
2019-04-07T00:06:32.647Z,0.00
2019-04-07T00:07:33.206Z,0.00
2019-04-07T00:08:32.925Z,0.00
2019-04-07T00:09:33.146Z,0.00
2019-04-07T00:10:32.602Z,0.00
2019-04-07T00:11:32.591Z,0.00
2019-04-07T00:12:32.587Z,0.00
2019-04-07T00:13:32.758Z,0.00
2019-04-07T00:14:32.928Z,0.00
2019-04-07T00:15:33.249Z,0.00
2019-04-07T00:16:32.759Z,0.00
2019-04-07T00:17:32.575Z,0.00
2019-04-07T00:18:32.534Z,0.00
2019-04-07T00:19:32.499Z,0.00
2019-04-07T00:20:32.530Z,0.00
2019-04-07T00:21:33.137Z,0.00
2019-04-07T00:22:32.513Z,0.00
2019-04-07T00:23:32.925Z,0.00
2019-04-07T00:24:33.132Z,0.00
2019-04-07T00:25:32.438Z,0.00
2019-04-07T00:26:32.431Z,0.00
2019-04-07T00:27:32.436Z,0.00
2019-04-07T00:28:32.542Z,0.00
2019-04-07T00:29:32.399Z,0.00
2019-04-07T00:30:32.379Z,0.00
2019-04-07T00:31:32.374Z,0.00
2019-04-07T00:32:32.795Z,0.00
2019-04-07T00:33:32.360Z,0.00
2019-04-07T00:34:32.346Z,0.00
2019-04-07T00:35:33.278Z,0.00
2019-04-07T00:36:32.874Z,0.00
2019-04-07T00:37:32.742Z,0.00
2019-04-07T00:38:32.553Z,0.00
2019-04-07T00:39:32.342Z,0.00
2019-04-07T00:40:32.282Z,0.00
2019-04-07T00:41:32.254Z,0.00
2019-04-07T00:42:32.624Z,0.00
2019-04-07T00:43:32.230Z,0.00
2019-04-07T00:44:32.789Z,0.00
2019-04-07T00:45:32.230Z,0.00
2019-04-07T00:46:32.291Z,0.00
2019-04-07T00:47:32.318Z,0.00
2019-04-07T00:48:32.184Z,0.00
2019-04-07T00:49:32.310Z,0.00
2019-04-07T00:50:32.670Z,0.00
2019-04-07T00:51:32.168Z,0.00
2019-04-07T00:52:32.677Z,0.00
2019-04-07T00:53:32.128Z,0.00
2019-04-07T00:54:32.660Z,0.00
2019-04-07T00:55:32.217Z,0.00
2019-04-07T00:56:32.098Z,0.00
2019-04-07T00:57:32.726Z,0.00
2019-04-07T00:58:32.066Z,0.00
2019-04-07T00:59:32.060Z,0.00
2019-04-07T01:00:32.423Z,0.00
2019-04-07T01:01:32.042Z,0.00
2019-04-07T01:02:32.268Z,0.00
2019-04-07T01:03:32.688Z,0.00
2019-04-07T01:04:32.010Z,0.00
2019-04-07T01:05:36.211Z,0.00
2019-04-07T01:06:32.978Z,0.00
2019-04-07T01:07:31.973Z,0.00
2019-04-07T01:08:32.617Z,0.00
2019-04-07T01:09:32.615Z,0.00
2019-04-07T01:10:31.930Z,0.00
2019-04-07T01:11:32.112Z,0.00
2019-04-07T01:12:31.946Z,0.00
2019-04-07T01:13:32.018Z,0.00
2019-04-07T01:14:32.367Z,0.00
2019-04-07T01:15:31.882Z,0.00
2019-04-07T01:16:31.866Z,0.00
2019-04-07T01:17:31.880Z,0.00
2019-04-07T01:18:31.848Z,0.00
2019-04-07T01:19:31.834Z,0.00
2019-04-07T01:20:31.839Z,0.00
2019-04-07T01:21:32.354Z,0.00
2019-04-07T01:22:31.913Z,0.00
2019-04-07T01:23:32.460Z,0.00
2019-04-07T01:24:31.778Z,0.00
2019-04-07T01:25:31.869Z,0.00
2019-04-07T01:26:31.850Z,0.00
2019-04-07T01:27:31.747Z,0.00
2019-04-07T01:28:31.742Z,0.00
2019-04-07T01:29:32.125Z,0.00
2019-04-07T01:30:31.713Z,0.00
2019-04-07T01:31:31.701Z,0.00
2019-04-07T01:32:31.786Z,0.00
2019-04-07T01:33:32.333Z,0.00
2019-04-07T01:34:31.666Z,0.00
2019-04-07T01:35:32.064Z,0.00
2019-04-07T01:36:31.727Z,0.00
2019-04-07T01:37:31.669Z,0.00
2019-04-07T01:38:32.133Z,0.00
2019-04-07T01:39:32.218Z,0.00
2019-04-07T01:40:32.197Z,0.00
2019-04-07T01:41:31.765Z,0.00
2019-04-07T01:42:31.766Z,0.00
2019-04-07T01:43:31.780Z,0.00
2019-04-07T01:44:31.574Z,0.00
2019-04-07T01:45:31.860Z,0.00
2019-04-07T01:46:31.724Z,0.00
2019-04-07T01:47:32.087Z,0.00
2019-04-07T01:48:31.530Z,0.00
2019-04-07T01:49:31.510Z,0.00
2019-04-07T01:50:31.486Z,0.00
2019-04-07T01:51:32.184Z,0.00
2019-04-07T01:52:31.639Z,0.00
2019-04-07T01:53:31.450Z,0.00
2019-04-07T01:54:31.825Z,0.00
2019-04-07T01:55:31.442Z,0.00
2019-04-07T01:56:31.447Z,0.00
2019-04-07T01:57:31.407Z,0.00
2019-04-07T01:58:31.690Z,0.00
2019-04-07T01:59:31.386Z,0.00
2019-04-07T02:00:31.672Z,0.00
2019-04-07T02:01:31.395Z,0.00
2019-04-07T02:02:31.365Z,0.00
2019-04-07T02:03:32.016Z,0.00
2019-04-07T02:04:31.326Z,0.00
2019-04-07T02:05:31.429Z,0.00
2019-04-07T02:06:31.326Z,0.00
2019-04-07T02:07:31.295Z,0.00
2019-04-07T02:08:32.030Z,0.00
2019-04-07T02:09:31.591Z,0.00
2019-04-07T02:10:31.538Z,0.00
2019-04-07T02:11:31.725Z,0.00
2019-04-07T02:12:31.388Z,0.00
2019-04-07T02:13:31.235Z,0.00
2019-04-07T02:14:31.303Z,0.00
2019-04-07T02:15:31.860Z,0.00
2019-04-07T02:16:31.306Z,0.00
2019-04-07T02:17:31.738Z,0.00
2019-04-07T02:18:31.359Z,0.00
2019-04-07T02:19:31.614Z,0.00
2019-04-07T02:20:31.219Z,0.00
2019-04-07T02:21:31.146Z,0.00
2019-04-07T02:22:31.284Z,0.00
2019-04-07T02:23:31.702Z,0.00
2019-04-07T02:24:31.150Z,0.00
2019-04-07T02:25:31.693Z,0.00
2019-04-07T02:26:31.704Z,0.00
2019-04-07T02:27:31.766Z,0.00
2019-04-07T02:28:31.062Z,0.00
2019-04-07T02:29:31.064Z,0.00
2019-04-07T02:30:31.054Z,0.00
2019-04-07T02:31:31.912Z,0.00
2019-04-07T02:32:31.297Z,0.00
2019-04-07T02:33:31.110Z,0.00
2019-04-07T02:34:31.018Z,0.00
2019-04-07T02:35:31.867Z,0.00
2019-04-07T02:36:31.973Z,0.00
2019-04-07T02:37:31.318Z,0.00
2019-04-07T02:38:31.626Z,0.00
2019-04-07T02:39:30.962Z,0.00
2019-04-07T02:40:31.273Z,0.00
2019-04-07T02:41:30.934Z,0.00
2019-04-07T02:42:30.950Z,0.00
2019-04-07T02:43:31.128Z,0.00
2019-04-07T02:44:31.577Z,0.00
2019-04-07T02:45:30.884Z,0.00
2019-04-07T02:46:31.379Z,0.00
2019-04-07T02:47:31.329Z,0.00
2019-04-07T02:48:32.085Z,0.00
2019-04-07T02:49:32.256Z,0.00
2019-04-07T02:50:31.603Z,0.00
2019-04-07T02:51:31.855Z,0.00
2019-04-07T02:52:31.823Z,0.00
2019-04-07T02:53:30.950Z,0.00
2019-04-07T02:54:30.814Z,0.00
2019-04-07T02:55:30.781Z,0.00
2019-04-07T02:56:30.747Z,0.00
2019-04-07T02:57:31.823Z,0.00
2019-04-07T02:58:31.188Z,0.00
2019-04-07T02:59:31.191Z,0.00
2019-04-07T03:00:30.704Z,0.00
2019-04-07T03:01:30.693Z,0.00
2019-04-07T03:02:31.616Z,0.00
2019-04-07T03:03:31.128Z,0.00
2019-04-07T03:04:31.022Z,0.00
2019-04-07T03:05:30.655Z,0.00
2019-04-07T03:06:39.437Z,0.00
2019-04-07T03:07:32.493Z,0.00
2019-04-07T03:08:30.615Z,0.00
2019-04-07T03:09:31.091Z,0.00
2019-04-07T03:10:31.294Z,0.00
2019-04-07T03:11:31.393Z,0.00
2019-04-07T03:12:30.727Z,0.00
2019-04-07T03:13:31.535Z,0.00
2019-04-07T03:14:31.333Z,0.00
2019-04-07T03:15:31.112Z,0.00
2019-04-07T03:16:31.168Z,0.00
2019-04-07T03:17:31.656Z,0.00
2019-04-07T03:18:31.667Z,0.00
2019-04-07T03:19:30.508Z,0.00
2019-04-07T03:20:31.108Z,0.00
2019-04-07T03:21:31.050Z,0.00
2019-04-07T03:22:30.975Z,0.00
2019-04-07T03:23:30.654Z,0.00
2019-04-07T03:24:30.597Z,0.00
2019-04-07T03:25:30.466Z,0.00
2019-04-07T03:26:31.170Z,0.00
2019-04-07T03:27:31.328Z,0.00
2019-04-07T03:28:30.611Z,0.00
2019-04-07T03:29:31.131Z,0.00
2019-04-07T03:30:32.706Z,0.00
2019-04-07T03:31:32.320Z,0.00
2019-04-07T03:32:31.178Z,0.00
2019-04-07T03:33:32.842Z,0.00
2019-04-07T03:34:33.035Z,0.00
2019-04-07T03:35:32.925Z,0.00
2019-04-07T03:36:32.559Z,0.00
2019-04-07T03:37:39.756Z,0.00
2019-04-07T03:38:31.522Z,0.00
2019-04-07T03:39:30.271Z,0.00
2019-04-07T03:40:30.290Z,0.00
2019-04-07T03:41:30.750Z,0.00
2019-04-07T03:42:30.241Z,0.00
2019-04-07T03:43:30.429Z,0.00
2019-04-07T03:44:30.258Z,0.00
2019-04-07T03:45:30.524Z,0.00
2019-04-07T03:46:30.195Z,0.00
2019-04-07T03:47:30.263Z,0.00
2019-04-07T03:48:30.507Z,0.00
2019-04-07T03:49:30.168Z,0.00
2019-04-07T03:50:30.162Z,0.00
2019-04-07T03:51:30.280Z,0.00
2019-04-07T03:52:30.124Z,0.00
2019-04-07T03:53:30.493Z,0.00
2019-04-07T03:54:30.299Z,0.00
2019-04-07T03:55:31.067Z,0.00
2019-04-07T03:56:30.682Z,0.00
2019-04-07T03:57:30.105Z,0.00
2019-04-07T03:58:30.939Z,0.00
2019-04-07T03:59:30.106Z,0.00
2019-04-07T04:00:30.035Z,0.00
2019-04-07T04:01:30.219Z,0.00
2019-04-07T04:02:30.018Z,0.00
2019-04-07T04:03:30.253Z,0.00
2019-04-07T04:04:30.110Z,0.00
2019-04-07T04:05:29.979Z,0.00
2019-04-07T04:06:30.224Z,0.00
2019-04-07T04:07:35.776Z,0.00
2019-04-07T04:08:31.717Z,0.00
2019-04-07T04:09:30.414Z,0.00
2019-04-07T04:10:30.122Z,0.00
2019-04-07T04:11:29.911Z,0.00
2019-04-07T04:12:30.157Z,0.00
2019-04-07T04:13:30.677Z,0.00
2019-04-07T04:14:29.905Z,0.00
2019-04-07T04:15:30.186Z,0.00
2019-04-07T04:16:29.861Z,0.00
2019-04-07T04:17:30.661Z,0.00
2019-04-07T04:18:30.899Z,0.00
2019-04-07T04:19:30.205Z,0.00
2019-04-07T04:20:30.245Z,0.00
2019-04-07T04:21:30.748Z,4.00
2019-04-07T04:22:30.804Z,4.00
2019-04-07T04:23:30.303Z,0.00
2019-04-07T04:24:30.367Z,4.00
2019-04-07T04:25:30.428Z,4.00
2019-04-07T04:26:29.765Z,4.00
2019-04-07T04:27:30.108Z,4.00
2019-04-07T04:28:30.653Z,4.00
2019-04-07T04:29:29.914Z,4.00
2019-04-07T04:30:29.978Z,4.00
2019-04-07T04:31:29.807Z,12.00
2019-04-07T04:32:30.798Z,8.00
2019-04-07T04:33:29.855Z,12.00
2019-04-07T04:34:29.657Z,16.00
2019-04-07T04:35:30.075Z,16.00
2019-04-07T04:36:29.650Z,20.00
2019-04-07T04:37:40.216Z,24.00
2019-04-07T04:38:30.614Z,28.00
2019-04-07T04:39:29.611Z,32.00
2019-04-07T04:40:29.841Z,36.00
2019-04-07T04:41:29.582Z,44.00
2019-04-07T04:42:29.571Z,48.00
2019-04-07T04:43:29.571Z,52.00
2019-04-07T04:44:29.588Z,60.00
2019-04-07T04:45:29.603Z,68.00
2019-04-07T04:46:30.448Z,76.00
2019-04-07T04:47:29.514Z,84.00
2019-04-07T04:48:29.998Z,92.00
2019-04-07T04:49:29.500Z,108.00
2019-04-07T04:50:29.957Z,116.00
2019-04-07T04:51:29.644Z,128.00
2019-04-07T04:52:29.715Z,140.00
2019-04-07T04:53:30.722Z,156.00
2019-04-07T04:54:29.445Z,172.00
2019-04-07T04:55:29.755Z,180.00
2019-04-07T04:56:29.411Z,200.00
2019-04-07T04:57:29.415Z,212.00
2019-04-07T04:58:30.238Z,232.00
2019-04-07T04:59:29.804Z,248.00
2019-04-07T05:00:29.398Z,260.00
2019-04-07T05:01:29.354Z,280.00
2019-04-07T05:02:29.987Z,300.00
2019-04-07T05:03:29.330Z,316.00
2019-04-07T05:04:29.389Z,336.00
2019-04-07T05:05:30.290Z,352.00
2019-04-07T05:06:29.670Z,376.00
2019-04-07T05:07:30.065Z,396.00
2019-04-07T05:08:29.840Z,416.00
2019-04-07T05:09:40.224Z,436.00
2019-04-07T05:10:30.988Z,460.00
2019-04-07T05:11:29.378Z,484.00
2019-04-07T05:12:29.230Z,504.00
2019-04-07T05:13:29.222Z,528.00
2019-04-07T05:14:29.214Z,548.00
2019-04-07T05:15:29.678Z,568.00
2019-04-07T05:16:29.328Z,592.00
2019-04-07T05:17:29.190Z,616.00
2019-04-07T05:18:29.162Z,640.00
2019-04-07T05:19:29.174Z,664.00
2019-04-07T05:20:29.421Z,692.00
2019-04-07T05:21:29.142Z,716.00
2019-04-07T05:22:29.160Z,744.00
2019-04-07T05:23:29.455Z,768.00
2019-04-07T05:24:29.098Z,792.00
2019-04-07T05:25:29.491Z,816.00
2019-04-07T05:26:29.171Z,840.00
2019-04-07T05:27:29.324Z,864.00
2019-04-07T05:28:29.621Z,888.00
2019-04-07T05:29:29.124Z,908.00
2019-04-07T05:30:29.029Z,932.00
2019-04-07T05:31:29.226Z,956.00
2019-04-07T05:32:29.006Z,976.00
2019-04-07T05:33:29.337Z,1000.00
2019-04-07T05:34:28.998Z,1020.00
2019-04-07T05:35:29.656Z,1040.00
2019-04-07T05:36:28.978Z,1060.00
2019-04-07T05:37:29.557Z,1084.00
2019-04-07T05:38:29.075Z,1104.00
2019-04-07T05:39:28.930Z,1124.00
2019-04-07T05:40:29.504Z,1144.00
2019-04-07T05:41:29.612Z,1160.00
2019-04-07T05:42:28.928Z,1180.00
2019-04-07T05:43:28.909Z,1200.00
2019-04-07T05:44:28.950Z,1220.00
2019-04-07T05:45:28.869Z,1236.00
2019-04-07T05:46:28.856Z,1256.00
2019-04-07T05:47:28.849Z,1276.00
2019-04-07T05:48:29.145Z,1296.00
2019-04-07T05:49:28.838Z,1312.00
2019-04-07T05:50:29.040Z,1332.00
2019-04-07T05:51:30.099Z,1352.00
2019-04-07T05:52:29.355Z,1368.00
2019-04-07T05:53:28.774Z,1384.00
2019-04-07T05:54:28.766Z,1396.00
2019-04-07T05:55:29.288Z,1416.00
2019-04-07T05:56:29.433Z,1432.00
2019-04-07T05:57:33.340Z,1448.00
2019-04-07T05:58:29.718Z,1464.00
2019-04-07T05:59:28.767Z,1484.00
2019-04-07T06:00:28.698Z,1500.00
2019-04-07T06:01:28.701Z,1516.00
2019-04-07T06:02:31.292Z,1532.00
2019-04-07T06:03:28.668Z,1548.00
2019-04-07T06:04:29.158Z,1564.00
2019-04-07T06:05:29.034Z,1584.00
2019-04-07T06:06:28.643Z,1596.00
2019-04-07T06:07:30.712Z,1612.00
2019-04-07T06:08:35.399Z,1620.00
2019-04-07T06:09:29.682Z,1640.00
2019-04-07T06:10:29.756Z,1656.00
2019-04-07T06:11:31.284Z,1668.00
2019-04-07T06:12:28.578Z,1684.00
2019-04-07T06:13:29.134Z,1700.00
2019-04-07T06:14:28.542Z,1716.00
2019-04-07T06:15:29.106Z,1728.00
2019-04-07T06:16:28.806Z,1740.00
2019-04-07T06:17:28.528Z,1756.00
2019-04-07T06:18:32.430Z,1768.00
2019-04-07T06:19:29.482Z,1780.00
2019-04-07T06:20:28.996Z,1796.00
2019-04-07T06:21:28.630Z,1808.00
2019-04-07T06:22:28.458Z,1824.00
2019-04-07T06:23:29.800Z,1832.00
2019-04-07T06:24:31.617Z,1844.00
2019-04-07T06:25:33.092Z,1856.00
2019-04-07T06:26:29.406Z,1872.00
2019-04-07T06:27:29.756Z,1892.00
2019-04-07T06:28:29.217Z,1900.00
2019-04-07T06:29:28.969Z,1912.00
2019-04-07T06:30:31.246Z,1924.00
2019-04-07T06:31:31.294Z,1932.00
2019-04-07T06:32:28.347Z,1936.00
2019-04-07T06:33:28.546Z,1956.00
2019-04-07T06:34:28.908Z,1972.00
2019-04-07T06:35:28.356Z,1984.00
2019-04-07T06:36:28.755Z,2000.00
2019-04-07T06:37:29.431Z,2012.00
2019-04-07T06:38:34.051Z,2020.00
2019-04-07T06:39:31.853Z,2032.00
2019-04-07T06:40:28.475Z,2044.00
2019-04-07T06:41:31.253Z,2056.00
2019-04-07T06:42:31.568Z,2068.00
2019-04-07T06:43:28.213Z,2080.00
2019-04-07T06:44:28.206Z,2092.00
2019-04-07T06:45:28.344Z,2104.00
2019-04-07T06:46:28.647Z,2116.00
2019-04-07T06:47:30.759Z,2128.00
2019-04-07T06:48:28.838Z,2136.00
2019-04-07T06:49:29.484Z,2144.00
2019-04-07T06:50:28.144Z,2156.00
2019-04-07T06:51:30.890Z,2168.00
2019-04-07T06:52:28.564Z,2184.00
2019-04-07T06:53:28.101Z,2192.00
2019-04-07T06:54:28.682Z,2204.00
2019-04-07T06:55:29.673Z,2216.00
2019-04-07T06:56:32.141Z,2224.00
2019-04-07T06:57:29.840Z,2240.00
2019-04-07T06:58:28.147Z,2252.00
2019-04-07T06:59:28.321Z,2260.00
2019-04-07T07:00:28.085Z,2276.00
2019-04-07T07:01:28.510Z,2280.00
2019-04-07T07:02:30.227Z,2288.00
2019-04-07T07:03:28.247Z,2296.00
2019-04-07T07:04:27.985Z,2312.00
2019-04-07T07:05:28.043Z,2324.00
2019-04-07T07:06:28.541Z,2328.00
2019-04-07T07:07:28.164Z,2336.00
2019-04-07T07:08:28.396Z,2352.00
2019-04-07T07:09:28.782Z,2348.00
2019-04-07T07:10:30.422Z,2360.00
2019-04-07T07:11:31.310Z,2372.00
2019-04-07T07:12:34.925Z,2380.00
2019-04-07T07:13:33.358Z,2392.00
2019-04-07T07:14:38.067Z,2400.00
2019-04-07T07:15:33.741Z,2408.00
2019-04-07T07:16:29.846Z,2420.00
2019-04-07T07:17:27.996Z,2436.00
2019-04-07T07:18:28.350Z,2444.00
2019-04-07T07:19:29.240Z,2452.00
2019-04-07T07:20:29.578Z,2464.00
2019-04-07T07:21:28.596Z,2472.00
2019-04-07T07:22:28.573Z,2488.00
2019-04-07T07:23:28.533Z,2508.00
2019-04-07T07:24:27.765Z,2516.00
2019-04-07T07:25:29.859Z,2532.00
2019-04-07T07:26:28.437Z,2544.00
2019-04-07T07:27:27.729Z,2552.00
2019-04-07T07:28:28.306Z,2568.00
2019-04-07T07:29:27.767Z,2580.00
2019-04-07T07:30:28.286Z,2588.00
2019-04-07T07:31:28.292Z,2600.00
2019-04-07T07:32:28.065Z,2608.00
2019-04-07T07:33:28.040Z,2624.00
2019-04-07T07:34:28.262Z,2632.00
2019-04-07T07:35:27.649Z,2640.00
2019-04-07T07:36:28.438Z,2656.00
2019-04-07T07:37:28.086Z,2664.00
2019-04-07T07:38:32.101Z,2672.00
2019-04-07T07:39:28.355Z,2680.00
2019-04-07T07:40:27.610Z,2680.00
2019-04-07T07:41:28.024Z,2688.00
2019-04-07T07:42:27.793Z,2692.00
2019-04-07T07:43:29.246Z,2700.00
2019-04-07T07:44:27.774Z,2712.00
2019-04-07T07:45:28.273Z,2716.00
2019-04-07T07:46:27.910Z,2724.00
2019-04-07T07:47:27.543Z,2732.00
2019-04-07T07:48:28.372Z,2748.00
2019-04-07T07:49:28.115Z,2756.00
2019-04-07T07:50:28.381Z,2772.00
2019-04-07T07:51:27.467Z,2776.00
2019-04-07T07:52:27.459Z,2784.00
2019-04-07T07:53:28.589Z,2792.00
2019-04-07T07:54:28.232Z,2800.00
2019-04-07T07:55:27.476Z,2808.00
2019-04-07T07:56:27.413Z,2820.00
2019-04-07T07:57:27.493Z,2832.00
2019-04-07T07:58:30.846Z,2840.00
2019-04-07T07:59:30.610Z,2852.00
2019-04-07T08:00:28.358Z,2864.00
2019-04-07T08:01:27.353Z,2868.00
2019-04-07T08:02:29.071Z,2880.00
2019-04-07T08:03:27.337Z,2888.00
2019-04-07T08:04:27.669Z,2904.00
2019-04-07T08:05:31.691Z,2908.00
2019-04-07T08:06:28.321Z,2916.00
2019-04-07T08:07:28.719Z,2928.00
2019-04-07T08:08:27.661Z,2944.00
2019-04-07T08:09:27.307Z,2952.00
2019-04-07T08:10:27.621Z,2960.00
2019-04-07T08:11:30.955Z,2968.00
2019-04-07T08:12:27.436Z,2980.00
2019-04-07T08:13:27.233Z,2992.00
2019-04-07T08:14:27.417Z,3004.00
2019-04-07T08:15:31.827Z,3016.00
2019-04-07T08:16:31.060Z,3012.00
2019-04-07T08:17:27.721Z,3024.00
2019-04-07T08:18:27.187Z,3032.00
2019-04-07T08:19:29.624Z,3036.00
2019-04-07T08:20:27.453Z,3044.00
2019-04-07T08:21:28.008Z,3048.00
2019-04-07T08:22:32.495Z,3056.00
2019-04-07T08:23:28.628Z,3068.00
2019-04-07T08:24:27.328Z,3080.00
2019-04-07T08:25:27.085Z,3092.00
2019-04-07T08:26:27.813Z,3104.00
2019-04-07T08:27:31.037Z,3112.00
2019-04-07T08:28:27.049Z,3128.00
2019-04-07T08:29:27.068Z,3140.00
2019-04-07T08:30:27.187Z,3160.00
2019-04-07T08:31:27.013Z,3184.00
2019-04-07T08:32:30.786Z,3192.00
2019-04-07T08:33:29.521Z,3204.00
2019-04-07T08:34:30.519Z,3220.00
2019-04-07T08:35:28.833Z,3240.00
2019-04-07T08:36:27.617Z,3264.00
2019-04-07T08:37:26.966Z,3272.00
2019-04-07T08:38:28.294Z,3292.00
2019-04-07T08:39:31.587Z,3304.00
2019-04-07T08:40:28.549Z,3324.00
2019-04-07T08:41:27.742Z,3340.00
2019-04-07T08:42:27.018Z,3344.00
2019-04-07T08:43:27.599Z,3360.00
2019-04-07T08:44:29.294Z,3372.00
2019-04-07T08:45:30.006Z,3388.00
2019-04-07T08:46:30.806Z,3396.00
2019-04-07T08:47:26.829Z,3408.00
2019-04-07T08:48:26.869Z,3424.00
2019-04-07T08:49:27.616Z,3432.00
2019-04-07T08:50:28.546Z,3436.00
2019-04-07T08:51:27.430Z,3452.00
2019-04-07T08:52:27.150Z,3460.00
2019-04-07T08:53:26.760Z,3476.00
2019-04-07T08:54:27.558Z,3492.00
2019-04-07T08:55:26.763Z,3500.00
2019-04-07T08:56:27.731Z,3500.00
2019-04-07T08:57:29.153Z,3516.00
2019-04-07T08:58:28.997Z,3524.00
2019-04-07T08:59:27.050Z,3544.00
2019-04-07T09:00:27.155Z,3560.00
2019-04-07T09:01:28.816Z,3572.00
2019-04-07T09:02:29.187Z,3584.00
2019-04-07T09:03:26.653Z,3600.00
2019-04-07T09:04:26.683Z,3616.00
2019-04-07T09:05:29.870Z,3616.00
2019-04-07T09:06:28.464Z,3640.00
2019-04-07T09:07:26.676Z,3660.00
2019-04-07T09:08:26.630Z,3676.00
2019-04-07T09:09:34.039Z,3696.00
2019-04-07T09:10:27.573Z,3712.00
2019-04-07T09:11:27.122Z,3732.00
2019-04-07T09:12:29.125Z,3732.00
2019-04-07T09:13:26.552Z,3744.00
2019-04-07T09:14:27.232Z,3760.00
2019-04-07T09:15:27.076Z,3772.00
2019-04-07T09:16:26.542Z,3780.00
2019-04-07T09:17:32.276Z,3800.00
2019-04-07T09:18:27.501Z,3816.00
2019-04-07T09:19:26.475Z,3828.00
2019-04-07T09:20:26.798Z,3852.00
2019-04-07T09:21:37.300Z,3860.00
2019-04-07T09:22:29.733Z,3876.00
2019-04-07T09:23:27.472Z,3884.00
2019-04-07T09:24:29.775Z,3916.00
2019-04-07T09:25:27.222Z,3912.00
2019-04-07T09:26:27.103Z,3916.00
2019-04-07T09:27:26.734Z,3932.00
2019-04-07T09:28:26.547Z,3936.00
2019-04-07T09:29:28.171Z,3944.00
2019-04-07T09:30:26.350Z,3948.00
2019-04-07T09:31:26.353Z,3960.00
2019-04-07T09:32:26.424Z,3960.00
2019-04-07T09:33:26.314Z,3976.00
2019-04-07T09:34:26.305Z,3976.00
2019-04-07T09:35:26.788Z,3988.00
2019-04-07T09:36:26.542Z,3992.00
2019-04-07T09:37:26.273Z,3996.00
2019-04-07T09:38:27.353Z,4000.00
2019-04-07T09:39:26.942Z,4008.00
2019-04-07T09:40:26.768Z,4016.00
2019-04-07T09:41:28.551Z,4024.00
2019-04-07T09:42:26.798Z,4020.00
2019-04-07T09:43:26.296Z,4024.00
2019-04-07T09:44:26.594Z,4024.00
2019-04-07T09:45:26.480Z,4040.00
2019-04-07T09:46:26.476Z,4044.00
2019-04-07T09:47:26.785Z,4056.00
2019-04-07T09:48:26.776Z,4064.00
2019-04-07T09:49:26.137Z,4072.00
2019-04-07T09:50:27.829Z,4084.00
2019-04-07T09:51:26.553Z,4096.00
2019-04-07T09:52:26.105Z,4100.00
2019-04-07T09:53:26.157Z,4104.00
2019-04-07T09:54:26.085Z,4104.00
2019-04-07T09:55:27.005Z,4120.00
2019-04-07T09:56:27.226Z,4124.00
2019-04-07T09:57:26.057Z,4132.00
2019-04-07T09:58:26.299Z,4136.00
2019-04-07T09:59:26.071Z,4132.00
2019-04-07T10:00:26.022Z,4148.00
2019-04-07T10:01:28.655Z,4152.00
2019-04-07T10:02:26.171Z,4156.00
2019-04-07T10:03:25.982Z,4168.00
2019-04-07T10:04:25.968Z,4184.00
2019-04-07T10:05:25.973Z,4176.00
2019-04-07T10:06:25.982Z,4184.00
2019-04-07T10:07:25.935Z,4204.00
2019-04-07T10:08:26.071Z,4208.00
2019-04-07T10:09:26.775Z,4212.00
2019-04-07T10:10:28.183Z,4232.00
2019-04-07T10:11:26.299Z,4252.00
2019-04-07T10:12:28.226Z,4256.00
2019-04-07T10:13:25.878Z,4260.00
2019-04-07T10:14:25.906Z,4260.00
2019-04-07T10:15:25.858Z,4268.00
2019-04-07T10:16:25.928Z,4284.00
2019-04-07T10:17:26.194Z,4292.00
2019-04-07T10:18:25.876Z,4304.00
2019-04-07T10:19:25.803Z,4312.00
2019-04-07T10:20:25.938Z,4324.00
2019-04-07T10:21:26.389Z,4332.00
2019-04-07T10:22:26.578Z,4340.00
2019-04-07T10:23:26.381Z,4340.00
2019-04-07T10:24:25.918Z,4344.00
2019-04-07T10:25:27.955Z,4368.00
2019-04-07T10:26:25.756Z,4384.00
2019-04-07T10:27:26.245Z,4392.00
2019-04-07T10:28:25.707Z,4388.00
2019-04-07T10:29:26.373Z,4408.00
2019-04-07T10:30:26.035Z,4432.00
2019-04-07T10:31:25.699Z,4440.00
2019-04-07T10:32:26.862Z,4456.00
2019-04-07T10:33:25.662Z,4460.00
2019-04-07T10:34:25.999Z,4464.00
2019-04-07T10:35:25.658Z,4472.00
2019-04-07T10:36:25.622Z,4476.00
2019-04-07T10:37:25.620Z,4472.00
2019-04-07T10:38:25.845Z,4480.00
2019-04-07T10:39:25.594Z,4492.00
2019-04-07T10:40:26.420Z,4504.00
2019-04-07T10:41:26.252Z,4512.00
2019-04-07T10:42:25.551Z,4516.00
2019-04-07T10:43:26.184Z,4532.00
2019-04-07T10:44:26.038Z,4568.00
2019-04-07T10:45:26.304Z,4572.00
2019-04-07T10:46:25.972Z,4600.00
2019-04-07T10:47:25.623Z,4564.00
2019-04-07T10:48:25.902Z,4564.00
2019-04-07T10:49:26.216Z,4600.00
2019-04-07T10:50:25.705Z,4592.00
2019-04-07T10:51:25.454Z,4620.00
2019-04-07T10:52:26.068Z,4648.00
2019-04-07T10:53:26.224Z,4648.00
2019-04-07T10:54:25.430Z,4644.00
2019-04-07T10:55:25.421Z,4656.00
2019-04-07T10:56:25.525Z,4704.00
2019-04-07T10:57:25.388Z,4748.00
2019-04-07T10:58:25.374Z,4756.00
2019-04-07T10:59:25.638Z,4796.00
2019-04-07T11:00:25.869Z,4824.00
2019-04-07T11:01:25.542Z,4860.00
2019-04-07T11:02:26.007Z,4868.00
2019-04-07T11:03:25.318Z,4916.00
2019-04-07T11:04:25.492Z,5008.00
2019-04-07T11:05:26.083Z,5048.00
2019-04-07T11:06:25.412Z,5240.00
2019-04-07T11:07:25.891Z,5484.00
2019-04-07T11:08:25.427Z,5564.00
2019-04-07T11:09:25.626Z,5560.00
2019-04-07T11:10:34.612Z,5504.00
2019-04-07T11:11:26.655Z,5596.00
2019-04-07T11:12:25.218Z,5760.00
2019-04-07T11:13:25.226Z,5824.00
2019-04-07T11:14:26.230Z,5948.00
2019-04-07T11:15:25.905Z,5940.00
2019-04-07T11:16:25.192Z,5764.00
2019-04-07T11:17:25.398Z,5584.00
2019-04-07T11:18:25.352Z,5424.00
2019-04-07T11:19:27.907Z,5304.00
2019-04-07T11:20:25.777Z,5396.00
2019-04-07T11:21:26.482Z,5608.00
2019-04-07T11:22:25.410Z,5736.00
2019-04-07T11:23:25.265Z,5936.00
2019-04-07T11:24:25.111Z,5940.00
2019-04-07T11:25:25.070Z,5712.00
2019-04-07T11:26:25.279Z,5492.00
2019-04-07T11:27:25.493Z,5380.00
2019-04-07T11:28:27.849Z,5312.00
2019-04-07T11:29:25.119Z,5256.00
2019-04-07T11:30:25.542Z,5276.00
2019-04-07T11:31:25.579Z,5216.00
2019-04-07T11:32:24.998Z,5256.00
2019-04-07T11:33:24.998Z,5328.00
2019-04-07T11:34:24.974Z,5368.00
2019-04-07T11:35:27.609Z,5356.00
2019-04-07T11:36:25.551Z,5552.00
2019-04-07T11:37:24.938Z,5748.00
2019-04-07T11:38:25.615Z,5844.00
2019-04-07T11:39:24.930Z,5936.00
2019-04-07T11:40:24.903Z,5924.00
2019-04-07T11:41:27.194Z,5964.00
2019-04-07T11:42:25.128Z,5852.00
2019-04-07T11:43:25.458Z,5800.00
2019-04-07T11:44:24.862Z,5792.00
2019-04-07T11:45:25.393Z,5724.00
2019-04-07T11:46:24.875Z,5752.00
2019-04-07T11:47:25.297Z,5872.00
2019-04-07T11:48:25.814Z,5820.00
2019-04-07T11:49:24.807Z,5700.00
2019-04-07T11:50:24.844Z,4744.00
2019-04-07T11:51:24.802Z,5724.00
2019-04-07T11:52:24.916Z,6096.00
2019-04-07T11:53:25.842Z,5952.00
2019-04-07T11:54:25.194Z,4820.00
2019-04-07T11:55:26.120Z,4712.00
2019-04-07T11:56:25.067Z,5888.00
2019-04-07T11:57:24.732Z,5900.00
2019-04-07T11:58:32.000Z,5180.00
2019-04-07T11:59:26.328Z,6172.00
2019-04-07T12:00:25.082Z,6096.00
2019-04-07T12:01:24.678Z,6004.00
2019-04-07T12:02:24.740Z,5908.00
2019-04-07T12:03:27.562Z,5860.00
2019-04-07T12:04:25.190Z,5832.00
2019-04-07T12:05:25.108Z,5992.00
2019-04-07T12:06:25.509Z,5684.00
2019-04-07T12:07:25.101Z,5960.00
2019-04-07T12:08:28.162Z,6260.00
2019-04-07T12:09:25.869Z,5920.00
2019-04-07T12:10:24.582Z,6140.00
2019-04-07T12:11:24.709Z,6408.00
2019-04-07T12:12:24.653Z,5828.00
2019-04-07T12:13:25.380Z,5580.00
2019-04-07T12:14:25.595Z,5080.00
2019-04-07T12:15:26.913Z,5168.00
2019-04-07T12:16:27.737Z,5828.00
2019-04-07T12:17:25.652Z,5432.00
2019-04-07T12:18:24.503Z,5476.00
2019-04-07T12:19:24.909Z,5376.00
2019-04-07T12:20:27.008Z,5192.00
2019-04-07T12:21:25.813Z,5688.00
2019-04-07T12:22:24.986Z,4748.00
2019-04-07T12:23:27.325Z,4780.00
2019-04-07T12:24:27.345Z,4968.00
2019-04-07T12:25:24.445Z,5184.00
2019-04-07T12:26:24.768Z,5408.00
2019-04-07T12:27:24.390Z,5612.00
2019-04-07T12:28:24.692Z,7468.00
2019-04-07T12:29:24.484Z,7660.00
2019-04-07T12:30:25.157Z,7216.00
2019-04-07T12:31:24.963Z,5688.00
2019-04-07T12:32:24.942Z,5072.00